Time;durP1;ratioP1;P1;durP2;ratioP2;P2;SDS_P1;SDS_P2;PMS_P1;PMS_P2;Temp;Humidity;BMP_temperature;BMP_pressure;BME280_temperature;BME280_humidity;BME280_pressure;Samples;Min_cycle;Max_cycle;Signal;HPM_P1;HPM_P2
2022/01/04 00:00:26;;;;;;;20.08;2.65;;;7.40;99.90;;;;;;5058554;28;20023;-81
2022/01/04 00:02:51;;;;;;;24.10;2.88;;;7.40;99.90;;;;;;5058624;28;20119;-81
2022/01/04 00:05:17;;;;;;;24.92;2.90;;;7.40;99.90;;;;;;5056865;28;20053;-81
2022/01/04 00:07:43;;;;;;;30.17;2.72;;;7.50;99.90;;;;;;5058166;28;20029;-81
2022/01/04 00:10:09;;;;;;;21.42;2.80;;;7.50;99.90;;;;;;5058344;28;20021;-81
2022/01/04 00:18:46;;;;;;;25.02;2.97;;;7.70;99.90;;;;;;5058233;28;20047;-81
2022/01/04 00:21:11;;;;;;;20.75;3.10;;;7.70;99.90;;;;;;5057383;28;20060;-81
2022/01/04 00:23:37;;;;;;;19.80;2.65;;;7.70;99.90;;;;;;5056458;28;20021;-81
2022/01/04 00:26:03;;;;;;;19.90;2.10;;;7.70;99.90;;;;;;5057623;28;20467;-81
2022/01/04 00:31:53;;;;;;;15.70;2.63;;;7.80;99.90;;;;;;5037427;28;20140;-81
2022/01/04 00:34:32;;;;;;;21.83;2.50;;;7.70;99.90;;;;;;5041089;28;20037;-81
2022/01/04 00:36:57;;;;;;;19.52;2.58;;;7.70;99.90;;;;;;5057651;28;20095;-81
2022/01/04 00:39:23;;;;;;;28.65;2.97;;;7.80;99.90;;;;;;5057635;28;20021;-81
2022/01/04 00:42:44;;;;;;;19.00;2.13;;;7.80;99.90;;;;;;5057609;28;20021;-81
2022/01/04 00:45:10;;;;;;;16.17;2.25;;;7.80;99.90;;;;;;5055977;28;20028;-81
2022/01/04 00:50:40;;;;;;;18.00;2.67;;;7.70;99.90;;;;;;5057291;28;20041;-81
2022/01/04 00:53:07;;;;;;;16.15;2.72;;;7.60;99.90;;;;;;5056984;28;20465;-81
2022/01/04 00:55:33;;;;;;;19.52;2.92;;;7.50;99.90;;;;;;5055494;28;20037;-81
2022/01/04 00:58:00;;;;;;;18.15;2.40;;;7.60;99.90;;;;;;5056831;28;20025;-81
2022/01/04 01:00:26;;;;;;;21.25;2.55;;;7.60;99.90;;;;;;5056381;28;20021;-81
2022/01/04 01:02:52;;;;;;;16.20;2.97;;;7.50;99.90;;;;;;5056644;28;20040;-81
2022/01/04 01:05:18;;;;;;;17.35;2.70;;;7.50;99.90;;;;;;5056697;28;20419;-81
2022/01/04 01:07:45;;;;;;;17.15;2.38;;;7.50;99.90;;;;;;5055111;28;20024;-81
2022/01/04 01:12:48;;;;;;;21.10;2.40;;;7.50;99.90;;;;;;5057242;28;20031;-81
2022/01/04 01:15:14;;;;;;;18.95;2.38;;;7.40;99.90;;;;;;5056714;28;20126;-81
2022/01/04 01:17:39;;;;;;;24.05;2.90;;;7.50;99.90;;;;;;5056660;28;20112;-81
2022/01/04 01:20:08;;;;;;;26.15;2.83;;;7.60;99.90;;;;;;5055494;28;20025;-81
2022/01/04 01:22:34;;;;;;;19.70;2.55;;;7.60;99.90;;;;;;5056879;28;20096;-81
2022/01/04 01:25:00;;;;;;;22.88;2.78;;;7.70;99.90;;;;;;5055568;28;20503;-81
2022/01/04 01:27:25;;;;;;;17.38;2.47;;;7.70;99.90;;;;;;5056797;28;20021;-81
2022/01/04 01:29:51;;;;;;;19.00;3.15;;;7.70;99.90;;;;;;5056211;28;20550;-81
2022/01/04 01:35:39;;;;;;;16.58;2.92;;;7.40;99.90;;;;;;5056266;28;20412;-81
2022/01/04 01:38:06;;;;;;;21.30;2.85;;;7.40;99.90;;;;;;5056065;28;20362;-81
2022/01/04 01:40:32;;;;;;;15.40;2.40;;;7.40;99.90;;;;;;5056151;28;20440;-81
2022/01/04 01:42:58;;;;;;;22.92;3.72;;;7.50;99.90;;;;;;5056365;28;20423;-81
2022/01/04 01:48:45;;;;;;;13.48;2.05;;;7.40;99.90;;;;;;5056370;28;20031;-81
2022/01/04 01:51:15;;;;;;;25.88;3.28;;;7.50;99.90;;;;;;5055933;28;20029;-80
2022/01/04 01:57:03;;;;;;;17.27;3.28;;;7.60;99.90;;;;;;5039920;28;20120;-81
2022/01/04 02:00:03;;;;;;;21.75;2.85;;;7.70;99.90;;;;;;5039065;28;20053;-81
2022/01/04 02:02:28;;;;;;;21.00;3.35;;;7.80;99.90;;;;;;5039440;28;20029;-81
2022/01/04 02:12:16;;;;;;;29.13;4.57;;;7.90;99.90;;;;;;5039923;28;20088;-81
2022/01/04 02:14:49;;;;;;;18.48;3.75;;;7.90;99.90;;;;;;5038654;28;20041;-81
2022/01/04 02:17:15;;;;;;;28.08;4.15;;;8.00;99.90;;;;;;5038234;28;20093;-81
2022/01/04 02:19:40;;;;;;;20.50;3.90;;;8.00;99.90;;;;;;5039413;28;20056;-81
2022/01/04 02:22:06;;;;;;;22.70;4.43;;;8.00;99.90;;;;;;5039227;28;20469;-81
2022/01/04 02:24:33;;;;;;;26.38;4.00;;;8.00;99.90;;;;;;5038998;28;20026;-81
2022/01/04 02:30:20;;;;;;;24.67;4.40;;;8.00;99.90;;;;;;5046389;28;20051;-81
2022/01/04 02:32:51;;;;;;;19.38;4.22;;;7.90;99.90;;;;;;5059016;28;20025;-81
2022/01/04 02:35:19;;;;;;;17.95;3.78;;;8.00;99.90;;;;;;5058093;28;20515;-82
2022/01/04 02:37:44;;;;;;;23.20;3.60;;;7.90;99.90;;;;;;5057512;28;20040;-81
2022/01/04 02:40:11;;;;;;;24.08;3.92;;;8.00;99.90;;;;;;5057905;28;20021;-82
2022/01/04 02:42:37;;;;;;;30.00;3.95;;;8.00;99.90;;;;;;5057476;28;20071;-81
2022/01/04 02:45:03;;;;;;;22.35;3.20;;;8.10;99.90;;;;;;5058896;28;20152;-81
2022/01/04 02:47:29;;;;;;;21.00;3.40;;;8.10;99.90;;;;;;5058784;28;20045;-81
2022/01/04 02:49:56;;;;;;;26.65;4.05;;;8.10;99.90;;;;;;5059099;28;20013;-82
2022/01/04 02:52:21;;;;;;;25.85;4.55;;;8.00;99.90;;;;;;5057009;28;20031;-82
2022/01/04 02:58:03;;;;;;;13.98;2.70;;;8.00;99.90;;;;;;5059010;28;20047;-81
2022/01/04 03:00:28;;;;;;;28.00;3.92;;;8.00;99.90;;;;;;5058751;28;20104;-81
2022/01/04 03:06:31;;;;;;;23.73;3.50;;;8.00;99.90;;;;;;5039115;28;20040;-81
2022/01/04 03:08:56;;;;;;;23.25;3.75;;;8.20;99.90;;;;;;5049601;28;20053;-82
2022/01/04 03:11:22;;;;;;;26.02;4.47;;;8.10;99.90;;;;;;5058597;28;20018;-81
2022/01/04 03:14:22;;;;;;;24.17;3.67;;;8.10;99.90;;;;;;5058836;28;20025;-81
2022/01/04 03:16:48;;;;;;;17.70;4.05;;;8.20;99.90;;;;;;5057332;28;20032;-81
2022/01/04 03:19:14;;;;;;;19.52;3.83;;;8.00;99.90;;;;;;5058441;28;20029;-81
2022/01/04 03:21:41;;;;;;;27.17;4.05;;;8.10;99.90;;;;;;5058394;28;20035;-81
2022/01/04 03:24:09;;;;;;;25.08;4.75;;;8.10;99.90;;;;;;5057017;28;20028;-81
2022/01/04 03:26:44;;;;;;;19.40;4.10;;;8.20;99.90;;;;;;5058115;28;20488;-81
2022/01/04 03:29:13;;;;;;;14.20;3.30;;;8.20;99.90;;;;;;5057970;28;20438;-81
2022/01/04 03:31:39;;;;;;;25.40;3.15;;;8.20;99.90;;;;;;5056650;28;20021;-82
2022/01/04 03:34:05;;;;;;;20.38;2.97;;;8.20;99.90;;;;;;5057715;28;20032;-81
2022/01/04 03:36:32;;;;;;;20.08;2.50;;;8.10;99.90;;;;;;5058220;28;20029;-81
2022/01/04 03:38:58;;;;;;;17.13;2.42;;;8.20;99.90;;;;;;5057841;28;20024;-81
2022/01/04 03:41:26;;;;;;;21.92;2.45;;;8.20;99.90;;;;;;5057065;28;20021;-81
2022/01/04 03:43:52;;;;;;;16.20;2.90;;;8.10;99.90;;;;;;5058046;28;20055;-81
2022/01/04 03:46:19;;;;;;;18.90;2.78;;;8.00;99.90;;;;;;5058166;28;20075;-82
2022/01/04 03:48:45;;;;;;;22.08;2.88;;;8.00;99.90;;;;;;5057480;28;20087;-81
2022/01/04 03:51:11;;;;;;;22.65;2.95;;;8.10;99.90;;;;;;5055641;28;20370;-82
2022/01/04 03:53:37;;;;;;;20.05;2.38;;;8.10;99.90;;;;;;5056013;28;20107;-81
2022/01/04 03:56:03;;;;;;;19.58;2.55;;;8.10;99.90;;;;;;5057099;28;20473;-82
2022/01/04 04:01:51;;;;;;;22.85;2.88;;;8.10;99.90;;;;;;5057784;28;20070;-82
2022/01/04 04:04:17;;;;;;;23.55;2.28;;;8.20;99.90;;;;;;5056391;28;20431;-81
2022/01/04 04:07:04;;;;;;;16.70;2.80;;;8.20;99.90;;;;;;5057348;28;20060;-82
2022/01/04 04:09:34;;;;;;;16.73;2.70;;;8.20;99.90;;;;;;5057311;28;20084;-81
2022/01/04 04:12:01;;;;;;;17.25;3.15;;;8.20;99.90;;;;;;5057876;28;20456;-82
2022/01/04 04:14:27;;;;;;;24.40;2.17;;;8.20;99.90;;;;;;5057079;28;20025;-81
2022/01/04 04:16:53;;;;;;;16.88;2.53;;;8.20;99.90;;;;;;5055671;28;20038;-81
2022/01/04 04:19:18;;;;;;;28.08;2.85;;;8.20;99.90;;;;;;5056076;28;20029;-81
2022/01/04 04:22:00;;;;;;;18.00;2.50;;;8.20;99.90;;;;;;5057175;28;20048;-81
2022/01/04 04:27:48;;;;;;;21.83;2.35;;;8.30;99.90;;;;;;5056918;28;20083;-82
2022/01/04 04:36:57;;;;;;;18.63;2.42;;;8.30;99.90;;;;;;5057066;28;20067;-81
2022/01/04 04:39:23;;;;;;;25.00;3.35;;;8.20;99.90;;;;;;5056909;28;20723;-81
2022/01/04 04:42:25;;;;;;;24.20;2.33;;;8.20;99.90;;;;;;5055592;28;20047;-81
2022/01/04 04:51:35;;;;;;;17.65;2.13;;;8.20;99.90;;;;;;5056826;28;20027;-82
2022/01/04 04:54:17;;;;;;;19.98;2.65;;;8.20;99.90;;;;;;5055943;28;20029;-81
2022/01/04 05:00:08;;;;;;;28.63;3.45;;;8.30;99.90;;;;;;5057604;28;20075;-82
2022/01/04 05:02:33;;;;;;;16.70;2.90;;;8.30;99.90;;;;;;5056624;28;20082;-81
2022/01/04 05:04:59;;;;;;;23.23;3.22;;;8.20;99.90;;;;;;5056580;28;20073;-81
2022/01/04 05:07:26;;;;;;;24.08;3.42;;;8.30;99.90;;;;;;5056384;28;20045;-82
2022/01/04 05:09:51;;;;;;;23.40;3.58;;;8.30;99.90;;;;;;5056880;28;20048;-80
2022/01/04 05:12:17;;;;;;;21.73;3.47;;;8.30;99.90;;;;;;5055958;28;20427;-82
2022/01/04 05:14:46;;;;;;;26.55;4.30;;;8.30;99.90;;;;;;5055537;28;20025;-81
2022/01/04 05:17:19;;;;;;;33.92;4.80;;;8.40;99.90;;;;;;5054310;28;20036;-82
2022/01/04 05:19:44;;;;;;;16.92;3.08;;;8.30;99.90;;;;;;5055519;28;20025;-81
2022/01/04 05:22:55;;;;;;;14.32;2.47;;;8.40;99.90;;;;;;5055628;28;20031;-82
2022/01/04 05:25:20;;;;;;;16.83;2.67;;;8.40;99.90;;;;;;5055460;28;20040;-81
2022/01/04 05:27:46;;;;;;;22.63;2.78;;;8.40;99.90;;;;;;5054763;28;20025;-82
2022/01/04 05:30:12;;;;;;;14.82;2.30;;;8.40;99.90;;;;;;5055607;28;20488;-82
2022/01/04 05:32:37;;;;;;;20.42;3.78;;;8.40;99.90;;;;;;5055157;28;20107;-81
2022/01/04 05:35:03;;;;;;;20.40;2.42;;;8.40;99.90;;;;;;5055184;28;20388;-81
2022/01/04 05:37:29;;;;;;;13.57;2.42;;;8.30;99.90;;;;;;5055329;28;20044;-82
2022/01/04 05:39:55;;;;;;;20.98;2.63;;;8.40;99.90;;;;;;5055596;28;20063;-81
2022/01/04 05:42:20;;;;;;;17.33;2.63;;;8.50;99.90;;;;;;5054048;28;20036;-82
2022/01/04 05:44:54;;;;;;;11.80;2.20;;;8.40;99.90;;;;;;5055042;28;20021;-81
2022/01/04 05:47:36;;;;;;;15.02;1.80;;;8.40;99.90;;;;;;5055527;28;20017;-82
2022/01/04 05:50:05;;;;;;;14.85;2.00;;;8.50;99.90;;;;;;5054168;28;20024;-81
2022/01/04 05:52:31;;;;;;;13.65;1.92;;;8.40;99.90;;;;;;5055698;28;20025;-81
2022/01/04 05:54:57;;;;;;;13.75;2.33;;;8.40;99.90;;;;;;5055213;28;20021;-81
2022/01/04 05:57:39;;;;;;;16.85;3.55;;;8.40;99.90;;;;;;5054946;28;20044;-81
2022/01/04 06:00:06;;;;;;;8.77;1.85;;;8.40;99.90;;;;;;5035433;28;20033;-82
2022/01/04 06:05:54;;;;;;;18.77;2.63;;;8.40;99.90;;;;;;5055121;28;20166;-82
2022/01/04 06:08:21;;;;;;;14.65;1.92;;;8.40;99.90;;;;;;5054563;28;20063;-81
2022/01/04 06:10:51;;;;;;;21.80;2.95;;;8.30;99.90;;;;;;5054597;28;20025;-81
2022/01/04 06:16:02;;;;;;;31.05;3.70;;;8.30;99.90;;;;;;5034980;28;20100;-81
2022/01/04 06:18:55;;;;;;;22.90;2.95;;;8.40;99.90;;;;;;5050311;28;20437;-82
2022/01/04 06:22:13;;;;;;;14.13;2.63;;;8.40;99.90;;;;;;5035309;28;20084;-81
2022/01/04 06:24:39;;;;;;;17.15;2.88;;;8.40;99.90;;;;;;5052230;28;20056;-81
2022/01/04 06:28:00;;;;;;;17.05;2.65;;;8.40;99.90;;;;;;5054801;28;20732;-81
2022/01/04 06:30:26;;;;;;;14.43;2.60;;;8.40;99.90;;;;;;5054159;28;20036;-81
2022/01/04 06:32:52;;;;;;;19.40;2.78;;;8.30;99.90;;;;;;5053415;28;20025;-82
2022/01/04 06:35:17;;;;;;;18.65;2.67;;;8.30;99.90;;;;;;5054760;28;20093;-82
2022/01/04 06:37:46;;;;;;;27.73;3.28;;;8.30;99.90;;;;;;5054725;28;20063;-81
2022/01/04 06:40:13;;;;;;;27.38;4.00;;;8.40;99.90;;;;;;5058718;28;20013;-82
2022/01/04 06:42:38;;;;;;;12.35;2.38;;;8.50;99.90;;;;;;5059887;28;20100;-83
2022/01/04 06:45:05;;;;;;;19.67;2.50;;;8.50;99.90;;;;;;5060248;28;20102;-82
2022/01/04 06:47:30;;;;;;;12.98;2.08;;;8.40;99.90;;;;;;5059912;28;20126;-82
2022/01/04 06:49:56;;;;;;;21.92;3.28;;;8.30;99.90;;;;;;5058063;28;20028;-82
2022/01/04 06:52:21;;;;;;;18.55;2.53;;;8.30;99.90;;;;;;5059426;28;20059;-82
2022/01/04 06:54:59;;;;;;;25.60;3.50;;;8.30;99.90;;;;;;5054579;28;20013;-82
2022/01/04 06:57:24;;;;;;;25.58;3.65;;;8.20;99.90;;;;;;5048048;28;20032;-82
2022/01/04 07:03:12;;;;;;;16.67;2.13;;;8.20;99.90;;;;;;5038731;28;20024;-81
2022/01/04 07:09:00;;;;;;;16.83;2.58;;;8.10;99.90;;;;;;5043963;28;20051;-82
2022/01/04 07:11:26;;;;;;;15.80;3.00;;;8.20;99.90;;;;;;5047395;28;20032;-82
2022/01/04 07:13:53;;;;;;;19.50;3.00;;;8.20;99.90;;;;;;5044483;28;20021;-82
2022/01/04 07:16:19;;;;;;;20.75;2.78;;;8.20;99.90;;;;;;5043929;28;20045;-82
2022/01/04 07:18:49;;;;;;;17.02;2.20;;;8.10;99.90;;;;;;5049563;28;20078;-82
2022/01/04 07:21:18;;;;;;;17.92;3.13;;;8.00;99.90;;;;;;5036157;28;20030;-81
2022/01/04 07:23:44;;;;;;;16.58;2.70;;;8.00;99.90;;;;;;5046276;28;20029;-81
2022/01/04 07:26:14;;;;;;;18.20;2.60;;;8.00;99.90;;;;;;5056923;28;20870;-82
2022/01/04 07:28:41;;;;;;;;;;;7.90;99.90;;;;;;5048162;28;20029;-82
2022/01/04 07:31:07;;;;;;;20.33;2.90;;;7.90;99.90;;;;;;5037642;28;20377;-82
2022/01/04 07:33:33;;;;;;;21.88;3.00;;;7.80;99.90;;;;;;5037399;28;20481;-82
2022/01/04 07:35:59;;;;;;;9.98;2.55;;;7.70;99.90;;;;;;5046960;28;20079;-81
2022/01/04 07:38:24;;;;;;;15.40;2.53;;;7.70;99.90;;;;;;5054938;28;20045;-82
2022/01/04 07:40:50;;;;;;;15.13;2.70;;;7.70;99.90;;;;;;5055533;28;20558;-82
2022/01/04 07:43:16;;;;;;;15.35;2.17;;;7.70;99.90;;;;;;5054179;28;20515;-82
2022/01/04 07:45:42;;;;;;;15.38;2.45;;;7.70;99.90;;;;;;5056046;28;20108;-82
2022/01/04 07:48:10;;;;;;;16.00;2.35;;;7.60;99.90;;;;;;5055810;28;20489;-82
2022/01/04 07:50:38;;;;;;;10.55;2.10;;;7.50;99.90;;;;;;5054897;28;20025;-82
2022/01/04 07:53:04;;;;;;;14.13;2.15;;;7.50;99.90;;;;;;5053432;28;20021;-82
2022/01/04 07:55:30;;;;;;;15.15;2.75;;;7.60;99.90;;;;;;5054324;28;20033;-80
2022/01/04 07:57:56;;;;;;;14.10;2.08;;;7.60;99.90;;;;;;5053895;28;20036;-81
2022/01/04 08:00:22;;;;;;;13.18;2.80;;;7.60;99.90;;;;;;5050690;28;20086;-81
2022/01/04 08:02:47;;;;;;;8.43;1.95;;;7.70;99.90;;;;;;5055829;28;20033;-81
2022/01/04 08:05:13;;;;;;;11.05;1.83;;;7.70;99.90;;;;;;5055787;28;20017;-82
2022/01/04 08:07:39;;;;;;;5.20;1.10;;;7.70;99.90;;;;;;5045198;28;20049;-81
2022/01/04 08:10:05;;;;;;;1.75;0.95;;;7.60;99.90;;;;;;5039391;28;20096;-81
2022/01/04 08:12:31;;;;;;;5.03;0.63;;;7.40;99.90;;;;;;5042045;28;20029;-82
2022/01/04 08:14:57;;;;;;;6.38;0.70;;;7.50;99.90;;;;;;5068977;28;20362;-82
2022/01/04 08:17:23;;;;;;;6.65;0.90;;;7.30;99.90;;;;;;5035322;28;20045;-82
2022/01/04 08:19:51;;;;;;;5.15;0.70;;;7.20;99.90;;;;;;5042961;28;20025;-80
2022/01/04 08:22:17;;;;;;;2.05;0.88;;;7.20;99.90;;;;;;5048785;28;20115;-82
2022/01/04 08:24:43;;;;;;;2.65;0.70;;;7.30;99.90;;;;;;5037785;28;20028;-82
2022/01/04 08:27:09;;;;;;;1.70;0.57;;;7.20;99.90;;;;;;5039537;28;20021;-82
2022/01/04 08:29:34;;;;;;;3.13;1.15;;;7.20;99.90;;;;;;5038130;28;20025;-82
2022/01/04 08:32:00;;;;;;;6.22;1.20;;;7.10;99.90;;;;;;5035130;28;20443;-82
2022/01/04 08:34:27;;;;;;;2.28;0.75;;;7.20;99.90;;;;;;5042621;28;20068;-81
2022/01/04 08:36:52;;;;;;;3.47;0.60;;;7.10;99.90;;;;;;5040317;28;20552;-81
2022/01/04 08:39:19;;;;;;;1.40;0.28;;;7.00;99.90;;;;;;5046122;28;20056;-81
2022/01/04 08:41:46;;;;;;;1.48;0.30;;;7.10;99.90;;;;;;5046816;28;20025;-82
2022/01/04 08:44:12;;;;;;;2.90;0.45;;;7.10;99.90;;;;;;5044333;28;20539;-82
2022/01/04 08:46:39;;;;;;;1.80;0.35;;;7.10;99.90;;;;;;5046539;28;20029;-82
2022/01/04 08:49:07;;;;;;;3.55;0.40;;;7.10;99.90;;;;;;5041069;28;20377;-82
2022/01/04 08:51:34;;;;;;;1.85;0.20;;;7.10;99.90;;;;;;5044060;28;20021;-82
2022/01/04 08:54:00;;;;;;;1.23;0.15;;;7.00;99.90;;;;;;5048256;28;20502;-82
2022/01/04 08:56:26;;;;;;;2.38;0.75;;;7.00;99.90;;;;;;5047983;28;20033;-82
2022/01/04 08:58:52;;;;;;;8.70;0.85;;;7.00;99.90;;;;;;5040650;28;20018;-82
2022/01/04 09:01:18;;;;;;;2.40;0.20;;;7.00;99.90;;;;;;5045078;28;20051;-82
2022/01/04 09:03:43;;;;;;;1.98;0.40;;;6.90;99.90;;;;;;5053539;28;20370;-82
2022/01/04 09:06:12;;;;;;;3.30;0.30;;;6.90;99.90;;;;;;5047705;28;20485;-82
2022/01/04 09:08:38;;;;;;;2.20;0.50;;;7.00;99.90;;;;;;5054624;28;20041;-82
2022/01/04 09:11:04;;;;;;;3.45;0.75;;;6.90;99.90;;;;;;5056199;28;20028;-81
2022/01/04 09:13:36;;;;;;;1.85;0.80;;;6.90;99.90;;;;;;5055812;28;20025;-79
2022/01/04 09:18:48;;;;;;;2.35;0.70;;;6.90;99.90;;;;;;5054922;28;20080;-79
2022/01/04 09:21:33;;;;;;;12.95;0.40;;;6.80;99.90;;;;;;5054616;28;20033;-79
2022/01/04 09:23:59;;;;;;;0.60;0.50;;;6.80;99.90;;;;;;5053646;28;20420;-79
2022/01/04 09:26:28;;;;;;;3.67;0.90;;;6.80;99.90;;;;;;5047291;28;20053;-79
2022/01/04 09:28:54;;;;;;;3.35;0.30;;;6.80;99.90;;;;;;5045438;28;20088;-79
2022/01/04 09:31:22;;;;;;;3.22;0.47;;;6.70;99.90;;;;;;5051708;28;20032;-81
2022/01/04 09:33:49;;;;;;;1.40;0.20;;;6.80;99.90;;;;;;5053854;28;20024;-82
2022/01/04 09:36:14;;;;;;;0.60;0.22;;;6.60;99.90;;;;;;5043602;28;20036;-82
2022/01/04 09:38:40;;;;;;;0.47;0.17;;;6.60;99.90;;;;;;5047449;28;20025;-81
2022/01/04 09:41:06;;;;;;;3.47;0.82;;;6.50;99.90;;;;;;5053995;28;20025;-82
2022/01/04 09:43:31;;;;;;;0.13;0.08;;;6.40;99.90;;;;;;5054590;28;20029;-82
2022/01/04 09:45:57;;;;;;;0.55;0.30;;;6.50;99.90;;;;;;5056635;28;20013;-82
2022/01/04 09:48:23;;;;;;;2.35;0.25;;;6.40;99.90;;;;;;5068454;28;20562;-81
2022/01/04 09:50:49;;;;;;;1.10;0.20;;;6.30;99.90;;;;;;5052402;28;20025;-81
2022/01/04 09:53:21;;;;;;;1.02;0.32;;;6.30;99.90;;;;;;5054401;28;20028;-82
2022/01/04 09:55:55;;;;;;;3.13;0.20;;;6.30;99.90;;;;;;5057050;28;20029;-81
2022/01/04 09:58:24;;;;;;;0.25;0.10;;;6.30;99.90;;;;;;5057326;28;20074;-81
2022/01/04 10:00:51;;;;;;;0.65;0.22;;;6.20;99.90;;;;;;5057296;28;20021;-81
2022/01/04 10:03:21;;;;;;;2.05;0.30;;;6.30;99.90;;;;;;5056298;28;20029;-81
2022/01/04 10:05:47;;;;;;;2.08;0.20;;;6.20;99.90;;;;;;5058345;28;20151;-81
2022/01/04 10:08:17;;;;;;;1.98;0.45;;;6.30;99.90;;;;;;5056561;28;20060;-81
2022/01/04 10:10:42;;;;;;;0.65;0.20;;;6.30;99.90;;;;;;5056673;28;20035;-82
2022/01/04 10:13:14;;;;;;;0.45;0.10;;;6.40;99.90;;;;;;5057026;28;20124;-82
2022/01/04 10:15:43;;;;;;;3.97;0.65;;;6.50;99.90;;;;;;5050780;28;20162;-80
2022/01/04 10:18:17;;;;;;;6.93;0.50;;;6.50;99.90;;;;;;5057852;28;20086;-79
2022/01/04 10:20:46;;;;;;;2.72;0.50;;;6.30;13.10;;;;;;5070402;28;20054;-80
2022/01/04 10:23:12;;;;;;;4.05;0.60;;;6.10;1.00;;;;;;5046047;28;20036;-80
2022/01/04 10:25:39;;;;;;;2.63;0.35;;;6.00;1.00;;;;;;5060674;28;20021;-82
2022/01/04 10:28:05;;;;;;;1.88;0.20;;;6.00;99.90;;;;;;5061342;28;20393;-83
2022/01/04 10:30:34;;;;;;;3.22;0.43;;;6.10;99.90;;;;;;5057551;28;20025;-82
2022/01/04 10:33:08;;;;;;;2.67;0.20;;;6.20;99.90;;;;;;5058132;28;20516;-82
2022/01/04 10:35:38;;;;;;;4.28;0.90;;;6.20;99.90;;;;;;5052963;28;20036;-82
2022/01/04 10:38:18;;;;;;;;;;;6.30;99.90;;;;;;5054226;28;20032;-82
2022/01/04 10:40:50;;;;;;;0.38;0.10;;;6.40;99.90;;;;;;5056954;28;19913;-82
2022/01/04 10:43:22;;;;;;;1.92;0.35;;;6.40;99.90;;;;;;5055621;28;20033;-80
2022/01/04 10:45:49;;;;;;;1.25;0.40;;;6.50;99.90;;;;;;5060360;28;20072;-81
2022/01/04 10:48:22;;;;;;;0.30;0.10;;;6.40;99.90;;;;;;5060241;28;20071;-80
2022/01/04 10:50:54;;;;;;;2.15;0.43;;;6.40;99.90;;;;;;5061735;28;20032;-81
2022/01/04 10:53:25;;;;;;;0.85;0.10;;;6.40;99.90;;;;;;5062040;28;20063;-81
2022/01/04 10:55:54;;;;;;;0.85;0.17;;;6.40;99.90;;;;;;5062026;28;20029;-81
2022/01/04 10:58:25;;;;;;;1.85;0.13;;;6.50;99.90;;;;;;5062142;28;20052;-81
2022/01/04 11:00:53;;;;;;;2.40;0.40;;;6.50;90.50;;;;;;5059674;28;20147;-81
2022/01/04 11:03:24;;;;;;;5.57;0.50;;;6.50;90.50;;;;;;5053748;28;20159;-81
2022/01/04 11:06:04;;;;;;;3.45;0.50;;;6.50;99.90;;;;;;5057939;28;20483;-81
2022/01/04 11:08:30;;;;;;;3.80;0.32;;;6.60;82.10;;;;;;5062398;28;20040;-81
2022/01/04 11:10:56;;;;;;;1.50;0.20;;;6.70;32.90;;;;;;5062339;28;20080;-81
2022/01/04 11:13:23;;;;;;;0.98;0.20;;;6.80;33.80;;;;;;5061177;28;20056;-81
2022/01/04 11:15:49;;;;;;;4.18;0.43;;;6.90;1.00;;;;;;5060636;28;20059;-81
2022/01/04 11:18:14;;;;;;;1.38;0.50;;;7.20;4.50;;;;;;5061628;28;20041;-79
2022/01/04 11:20:44;;;;;;;5.43;0.40;;;7.10;1.00;;;;;;5062206;28;20057;-83
2022/01/04 11:23:12;;;;;;;2.47;0.30;;;7.10;8.00;;;;;;5060115;28;20036;-82
2022/01/04 11:25:42;;;;;;;1.70;0.10;;;7.10;1.00;;;;;;5051025;28;20025;-82
2022/01/04 11:28:09;;;;;;;0.13;0.08;;;7.00;3.40;;;;;;5075285;28;20041;-82
2022/01/04 11:31:09;;;;;;;0.75;0.10;;;7.00;1.00;;;;;;5048291;28;20031;-82
2022/01/04 11:34:01;;;;;;;0.63;0.20;;;7.00;1.00;;;;;;5049096;28;20036;-81
2022/01/04 11:36:29;;;;;;;11.70;0.65;;;7.10;1.00;;;;;;5052101;28;20444;-82
2022/01/04 11:38:55;;;;;;;2.90;0.30;;;7.00;1.00;;;;;;5048370;28;20113;-81
2022/01/04 11:41:42;;;;;;;2.70;0.60;;;7.10;1.00;;;;;;5060021;28;20068;-82
2022/01/04 11:44:25;;;;;;;3.70;0.65;;;7.10;1.00;;;;;;5053651;28;20025;-82
2022/01/04 11:47:04;;;;;;;3.28;0.50;;;7.20;1.00;;;;;;5049629;28;20016;-82
2022/01/04 11:49:31;;;;;;;9.83;0.60;;;7.20;1.00;;;;;;5046339;28;20026;-81
2022/01/04 11:51:57;;;;;;;2.55;0.40;;;7.30;1.00;;;;;;5051197;28;20025;-81
2022/01/04 11:54:26;;;;;;;5.40;0.68;;;7.20;1.00;;;;;;5042443;28;20033;-81
2022/01/04 11:57:18;;;;;;;8.23;1.30;;;7.20;1.00;;;;;;5042710;28;20452;-82
2022/01/04 11:59:47;;;;;;;4.78;0.80;;;7.10;3.70;;;;;;5053560;28;20024;-81
2022/01/04 12:02:35;;;;;;;2.70;0.32;;;6.80;17.40;;;;;;5056442;28;20029;-82
2022/01/04 12:05:13;;;;;;;2.38;0.43;;;6.60;20.90;;;;;;5056328;28;20052;-81
2022/01/04 12:07:41;;;;;;;2.65;0.50;;;6.50;46.60;;;;;;5058331;28;20049;-82
2022/01/04 12:10:19;;;;;;;1.65;0.40;;;6.50;24.90;;;;;;5058165;28;20021;-82
2022/01/04 12:13:06;;;;;;;2.97;0.20;;;6.50;31.70;;;;;;5060118;28;20028;-81
2022/01/04 12:15:34;;;;;;;1.50;0.45;;;6.50;40.70;;;;;;5059663;28;20071;-82
2022/01/04 12:18:01;;;;;;;4.65;1.00;;;6.50;8.40;;;;;;5049952;28;20493;-81
2022/01/04 12:20:41;;;;;;;3.25;0.68;;;6.40;8.30;;;;;;5049151;28;20025;-82
2022/01/04 12:23:26;;;;;;;2.60;0.20;;;6.40;24.80;;;;;;5043326;28;20029;-81
2022/01/04 12:26:11;;;;;;;2.22;0.30;;;6.40;8.00;;;;;;5052649;28;20117;-82
2022/01/04 12:28:42;;;;;;;4.15;0.45;;;6.40;7.20;;;;;;5048473;28;20418;-82
2022/01/04 12:31:17;;;;;;;4.60;1.25;;;6.40;1.00;;;;;;5053852;28;20091;-82
2022/01/04 12:33:50;;;;;;;6.40;0.32;;;6.50;1.00;;;;;;5054058;28;20044;-82
2022/01/04 12:36:25;;;;;;;4.10;0.47;;;6.50;1.00;;;;;;5057392;28;20404;-81
2022/01/04 12:38:53;;;;;;;4.55;0.55;;;6.80;1.00;;;;;;5055579;28;20087;-81
2022/01/04 12:41:19;;;;;;;5.72;0.55;;;6.70;1.00;;;;;;5056276;28;20040;-81
2022/01/04 12:43:47;;;;;;;3.08;0.40;;;6.80;1.00;;;;;;5057948;28;20031;-81
2022/01/04 12:46:14;;;;;;;4.93;0.30;;;6.80;1.00;;;;;;5057137;28;20545;-82
2022/01/04 12:48:52;;;;;;;4.20;0.73;;;6.80;1.00;;;;;;5059179;28;20033;-81
2022/01/04 12:51:26;;;;;;;1.60;0.30;;;6.90;1.00;;;;;;5053769;28;20105;-82
2022/01/04 12:53:53;;;;;;;4.60;0.30;;;6.90;1.00;;;;;;5046148;28;20412;-82
2022/01/04 12:56:18;;;;;;;5.78;0.60;;;6.90;1.00;;;;;;5054514;28;20048;-82
2022/01/04 12:58:44;;;;;;;5.38;1.67;;;6.90;1.00;;;;;;5052780;28;20025;-82
2022/01/04 13:01:13;;;;;;;10.35;2.60;;;6.90;1.00;;;;;;5045787;28;20032;-83
2022/01/04 13:03:39;;;;;;;2.47;0.32;;;7.00;1.00;;;;;;5052001;28;20036;-82
2022/01/04 13:06:06;;;;;;;2.78;0.30;;;7.00;1.00;;;;;;5057777;28;20025;-82
2022/01/04 13:08:33;;;;;;;3.53;0.47;;;7.10;1.00;;;;;;5056274;28;20823;-83
2022/01/04 13:11:07;;;;;;;5.10;0.70;;;7.00;1.00;;;;;;5049136;28;20028;-82
2022/01/04 13:13:33;;;;;;;1.60;0.30;;;7.10;1.00;;;;;;5049041;28;20063;-82
2022/01/04 13:16:25;;;;;;;3.63;0.50;;;7.00;1.00;;;;;;5058757;28;20513;-82
2022/01/04 13:18:52;;;;;;;4.88;0.50;;;7.00;1.00;;;;;;5083762;28;20071;-82
2022/01/04 13:21:25;;;;;;;6.18;1.15;;;7.00;1.00;;;;;;5058222;28;20021;-81
2022/01/04 13:23:51;;;;;;;2.35;0.50;;;7.10;1.00;;;;;;5057431;28;20021;-81
2022/01/04 13:26:24;;;;;;;3.88;0.50;;;7.10;1.00;;;;;;5058409;28;20032;-82
2022/01/04 13:28:55;;;;;;;7.18;0.80;;;7.20;1.00;;;;;;5058059;28;20107;-81
2022/01/04 13:31:20;;;;;;;1.45;0.40;;;7.20;1.00;;;;;;5056938;28;20025;-82
2022/01/04 13:33:46;;;;;;;2.10;0.45;;;7.20;1.00;;;;;;5057203;28;20103;-82
2022/01/04 13:36:12;;;;;;;5.10;0.40;;;7.20;1.00;;;;;;5056446;28;20029;-82
2022/01/04 13:38:37;;;;;;;3.22;1.02;;;7.20;1.00;;;;;;5057890;28;20021;-82
2022/01/04 13:41:05;;;;;;;4.78;0.70;;;7.10;1.00;;;;;;5057087;28;20021;-82
2022/01/04 13:43:35;;;;;;;3.30;0.40;;;7.20;2.10;;;;;;5055199;28;20127;-82
2022/01/04 13:46:09;;;;;;;6.25;0.60;;;7.40;1.00;;;;;;5052285;28;20009;-82
2022/01/04 13:48:38;;;;;;;3.13;1.00;;;7.30;1.00;;;;;;5059762;28;20032;-82
2022/01/04 13:51:08;;;;;;;7.72;1.40;;;7.20;1.00;;;;;;5060666;28;20032;-81
2022/01/04 13:53:38;;;;;;;6.43;0.65;;;7.10;5.10;;;;;;5053198;28;20030;-82
2022/01/04 13:56:11;;;;;;;8.35;1.25;;;7.00;1.00;;;;;;5052461;28;20021;-82
2022/01/04 13:58:45;;;;;;;4.68;0.80;;;6.70;6.40;;;;;;5047081;28;20029;-82
2022/01/04 14:01:31;;;;;;;4.78;0.90;;;6.60;17.40;;;;;;5057058;28;20029;-82
2022/01/04 14:04:09;;;;;;;8.77;0.60;;;6.50;27.80;;;;;;5050494;28;20454;-82
2022/01/04 14:06:40;;;;;;;5.22;0.75;;;6.40;33.40;;;;;;5050511;28;20685;-81
2022/01/04 14:09:29;;;;;;;6.50;0.80;;;6.40;4.50;;;;;;5058135;28;20048;-80
2022/01/04 14:12:01;;;;;;;8.65;0.90;;;6.60;1.00;;;;;;5057971;28;20050;-80
2022/01/04 14:14:49;;;;;;;7.00;0.65;;;6.60;1.00;;;;;;5054148;28;20017;-79
2022/01/04 14:17:25;;;;;;;4.20;0.73;;;6.50;1.00;;;;;;5061082;28;20025;-80
2022/01/04 14:19:56;;;;;;;5.20;0.70;;;6.40;1.00;;;;;;5060825;28;20021;-80
2022/01/04 14:22:23;;;;;;;7.03;0.82;;;6.20;1.00;;;;;;5061554;28;20049;-80
2022/01/04 14:25:01;;;;;;;8.13;1.05;;;6.10;1.00;;;;;;5060950;28;20021;-80
2022/01/04 14:27:32;;;;;;;3.05;0.73;;;5.90;1.00;;;;;;5059178;28;20507;-80
2022/01/04 14:30:12;;;;;;;5.65;0.88;;;5.70;1.00;;;;;;5059096;28;20032;-80